Capewater — PBPQ — position and weather

sailwx.info

Track history (hours):
 
Tides and Currents Weather Stations Pressure Air Temp Water Temp Dewpoint Dewpoint Depression Visibility Wind Speed Wind Dir Waves Ship Positions

Capewater

Last reported at 2014-Oct-24 08:25 UTC. Time now 2014-Oct-24 08:41 UTC.
Position N 51°53' E 004°18'.

Length 100 m; draft 5.2 m.

Type: Tanker. MMSI: 246346000.

Date/timePositionNaut miles runAvg speedWind from/ knotsBaromVisibWave heightAir tempDewpointWater temp
2014-Oct-24 08:25N 51°53' E 004°18'0 0.0
2014-Oct-24 07:31N 51°53' E 004°18'0 0.0
2014-Oct-24 06:31N 51°53' E 004°18'0 0.0
2014-Oct-24 05:31N 51°53' E 004°18'1 1.0
2014-Oct-24 04:33N 51°52' E 004°16'0 0.1
2014-Oct-24 03:33N 51°52' E 004°16'0 0.0
2014-Oct-24 02:33N 51°52' E 004°16'0 0.0
2014-Oct-24 01:33N 51°52' E 004°16'0 0.0
2014-Oct-24 00:33N 51°52' E 004°16'0 0.0
2014-Oct-23 23:33N 51°52' E 004°16'0 0.0
2014-Oct-23 22:33N 51°52' E 004°16'0 0.0
2014-Oct-23 21:33N 51°52' E 004°16'0 0.0
2014-Oct-23 20:33N 51°52' E 004°16'0 0.0
2014-Oct-23 19:21N 51°52' E 004°16'0 0.0
2014-Oct-23 18:30N 51°52' E 004°16'0 0.0
2014-Oct-23 17:33N 51°52' E 004°16'0 0.0
2014-Oct-23 16:33N 51°52' E 004°16'0 0.0
2014-Oct-23 15:27N 51°52' E 004°16'1 1.6
2014-Oct-23 14:33N 51°53' E 004°18'0 0.4
2014-Oct-23 13:31N 51°53' E 004°18'0 0.0
2014-Oct-23 12:31N 51°53' E 004°18'0 0.0
2014-Oct-23 11:31N 51°53' E 004°18'0 0.0
2014-Oct-23 10:31N 51°53' E 004°18'0 0.0
2014-Oct-23 09:25N 51°53' E 004°18'0 0.0
2014-Oct-23 08:19N 51°53' E 004°18'0 0.0
2014-Oct-23 07:31N 51°53' E 004°18'0 0.0
2014-Oct-23 06:34N 51°53' E 004°18'0 0.0
2014-Oct-23 05:31N 51°53' E 004°18'0 0.0
2014-Oct-23 04:31N 51°53' E 004°18'0 0.0
2014-Oct-23 03:34N 51°53' E 004°18'0 0.0
2014-Oct-23 02:28N 51°53' E 004°18'0 0.0
2014-Oct-23 01:34N 51°53' E 004°18'0 0.0
2014-Oct-23 00:34N 51°53' E 004°18'0 0.4
2014-Oct-22 23:34N 51°53' E 004°18'8 8.1
2014-Oct-22 22:33N 51°58' E 004°08'1212.0
2014-Oct-22 21:33N 52°00' E 003°49'9 8.7
2014-Oct-22 20:33N 52°08' E 003°41'5 2.4
2014-Oct-22 18:23N 52°12' E 003°36'0 0.1
2014-Oct-22 17:23N 52°12' E 003°36'0 0.0
2014-Oct-22 16:29N 52°12' E 003°36'0 0.3
2014-Oct-22 15:29N 52°11' E 003°36'1 0.6
2014-Oct-22 14:33N 52°11' E 003°36'1 0.8
2014-Oct-22 13:31N 52°10' E 003°36'1 0.8
2014-Oct-22 12:33N 52°09' E 003°36'0 0.4
2014-Oct-22 11:33N 52°09' E 003°36'0 0.1
2014-Oct-22 10:29N 52°09' E 003°36'1 1.6
2014-Oct-22 09:32N 52°09' E 003°33'1 0.6
2014-Oct-22 08:30N 52°09' E 003°34'1 1.3
2014-Oct-22 07:33N 52°10' E 003°33'0 0.5
2014-Oct-22 06:32N 52°09' E 003°34'1 0.8
2014-Oct-22 05:28N 52°10' E 003°35'1 0.9
2014-Oct-22 04:27N 52°10' E 003°36'1 0.7
2014-Oct-22 03:32N 52°11' E 003°37'1 0.6
2014-Oct-22 02:30N 52°11' E 003°38'0 0.3
2014-Oct-22 01:33N 52°10' E 003°38'0 0.4
2014-Oct-22 00:30N 52°10' E 003°39'1 0.8
2014-Oct-21 23:30N 52°10' E 003°37'1 1.2
2014-Oct-21 22:31N 52°09' E 003°36'1 0.9
2014-Oct-21 21:33N 52°08' E 003°35'0 0.3
2014-Oct-21 20:31N 52°09' E 003°35'0 0.2
2014-Oct-21 19:33N 52°08' E 003°35'0 0.3
2014-Oct-21 18:33N 52°08' E 003°36'1 0.8
2014-Oct-21 17:33N 52°09' E 003°37'0 0.4
2014-Oct-21 16:17N 52°09' E 003°38'0 0.1
2014-Oct-21 15:32N 52°09' E 003°37'0 0.1
2014-Oct-21 14:32N 52°09' E 003°37'4 3.9
2014-Oct-21 13:33N 52°09' E 003°31'6513.0
2014-Oct-21 08:33N 52°45' E 002°03'1414.1
2014-Oct-21 07:33N 52°52' E 001°42'1414.0
2014-Oct-21 06:34N 53°02' E 001°27'1313.3
2014-Oct-21 05:33N 53°14' E 001°15'3812.8
2014-Oct-21 02:33N 53°47' E 000°43'1413.6
2014-Oct-21 01:33N 53°58' E 000°30'1413.7
2014-Oct-21 00:33N 54°10' E 000°19'1413.6
2014-Oct-20 23:33N 54°22' E 000°08'1413.5
2014-Oct-20 22:33N 54°33' W 000°07'1312.6
2014-Oct-20 21:33N 54°40' W 000°24'1414.2
2014-Oct-20 20:33N 54°40' W 000°49'13 3.0
2014-Oct-20 16:07N 54°36' W 001°11'0 0.0
2014-Oct-20 10:25N 54°36' W 001°11'0 0.0
2014-Oct-20 08:31N 54°36' W 001°11'2 0.3
2014-Oct-20 01:29N 54°38' W 001°09'4 4.5
2014-Oct-20 00:33N 54°39' W 001°03'1812.5
2014-Oct-19 23:09N 54°35' W 000°33'712.7
2014-Oct-19 22:33N 54°32' W 000°21'1312.9
2014-Oct-19 21:34N 54°29' W 000°00'1312.9
2014-Oct-19 20:33N 54°25' E 000°21'1312.6
2014-Oct-19 19:33N 54°22' E 000°42'14311.0
2014-Oct-19 06:33N 54°03' E 004°45'1211.8
2014-Oct-19 05:33N 54°05' E 005°05'1211.7
2014-Oct-19 04:33N 54°07' E 005°24'1211.8
2014-Oct-19 03:33N 54°09' E 005°44'1511.8
2014-Oct-19 02:15N 54°11' E 006°10'3412.8
2014-Oct-18 23:33N 54°13' E 007°09'1313.3
2014-Oct-18 22:33N 54°12' E 007°32'1413.8
2014-Oct-18 21:33N 54°06' E 007°52'1313.3
2014-Oct-18 20:33N 54°00' E 008°13'1212.5
2014-Oct-18 19:33N 53°58' E 008°34'1111.1
2014-Oct-18 18:33N 53°50' E 008°48'1111.4
2014-Oct-18 17:33N 53°53' E 009°07'3 2.6
2014-Oct-18 16:33N 53°55' E 009°10'0 0.0
2014-Oct-18 06:20N 53°55' E 009°10'0 0.0
2014-Oct-17 09:33N 53°54' E 009°10'2 2.0
2014-Oct-17 08:34N 53°53' E 009°08'0 0.2
2014-Oct-17 07:32N 53°53' E 009°09'0 0.0
2014-Oct-17 06:32N 53°53' E 009°09'0 0.0
2014-Oct-17 05:32N 53°53' E 009°09'0 0.0
2014-Oct-17 04:32N 53°53' E 009°09'0 0.0
2014-Oct-17 03:32N 53°53' E 009°09'0 0.0
2014-Oct-17 02:32N 53°53' E 009°09'0 0.1
2014-Oct-17 01:32N 53°53' E 009°09'0 0.0
2014-Oct-17 00:32N 53°53' E 009°09'0 0.0
2014-Oct-16 23:32N 53°53' E 009°09'0 0.0
2014-Oct-16 22:32N 53°53' E 009°09'0 0.0
2014-Oct-16 21:32N 53°53' E 009°09'0 0.0
2014-Oct-16 20:32N 53°53' E 009°09'0 0.1
2014-Oct-16 19:32N 53°53' E 009°09'0 0.0
2014-Oct-16 18:32N 53°53' E 009°09'0 0.0
2014-Oct-16 17:32N 53°53' E 009°09'0 0.0
2014-Oct-16 16:32N 53°53' E 009°09'0 0.0
2014-Oct-16 15:32N 53°53' E 009°09'0 0.0
2014-Oct-16 14:32N 53°53' E 009°09'0 0.1
2014-Oct-16 13:32N 53°53' E 009°09'0 0.0
2014-Oct-16 12:32N 53°53' E 009°09'0 0.0
2014-Oct-16 11:32N 53°53' E 009°09'0 0.0
2014-Oct-16 10:29N 53°53' E 009°09'0 0.0
2014-Oct-16 09:32N 53°53' E 009°09'0 0.0
2014-Oct-16 08:32N 53°53' E 009°09'0 0.0
2014-Oct-16 07:29N 53°53' E 009°09'0 0.1
2014-Oct-16 06:32N 53°53' E 009°09'0 0.0
2014-Oct-16 05:32N 53°53' E 009°09'0 0.0
2014-Oct-16 04:32N 53°53' E 009°09'0 0.0
2014-Oct-16 03:32N 53°53' E 009°09'0 0.0
2014-Oct-16 02:32N 53°53' E 009°09'0 0.0
2014-Oct-16 01:32N 53°53' E 009°09'0 0.1
2014-Oct-16 00:32N 53°53' E 009°09'0 0.0
2014-Oct-15 23:32N 53°53' E 009°09'2 2.5
2014-Oct-15 22:34N 53°52' E 009°04'1111.2
2014-Oct-15 21:34N 53°51' E 008°46'1111.0
2014-Oct-15 20:34N 53°58' E 008°31'1313.0
2014-Oct-15 19:33N 53°59' E 008°09'1413.6
2014-Oct-15 18:33N 53°57' E 007°47'5814.4
2014-Oct-15 14:33N 53°43' E 006°12'1514.7
2014-Oct-15 13:33N 53°38' E 005°48'1514.8
2014-Oct-15 12:34N 53°33' E 005°25'1514.6
2014-Oct-15 11:33N 53°29' E 005°02'1414.2
2014-Oct-15 10:33N 53°21' E 004°41'12214.9
2014-Oct-15 02:23N 51°45' E 002°37'1213.8
2014-Oct-15 01:29N 51°36' E 002°24'1213.4
2014-Oct-15 00:34N 51°26' E 002°13'1312.9
2014-Oct-14 23:33N 51°14' E 002°04'1312.9
2014-Oct-14 22:33N 51°07' E 001°47'1312.8
2014-Oct-14 21:33N 50°58' E 001°32'3413.6
2014-Oct-14 19:05N 50°31' E 001°01'814.3
2014-Oct-14 18:33N 50°26' E 000°52'4814.2
2014-Oct-14 15:12N 49°50' E 000°04'1015.1
2014-Oct-14 14:33N 49°41' W 000°03'1312.8
2014-Oct-14 13:33N 49°29' E 000°05'4 4.0
2014-Oct-14 12:33N 49°29' E 000°11'2 2.3
2014-Oct-14 11:32N 49°28' E 000°14'0 0.0
2014-Oct-14 10:32N 49°28' E 000°14'0 0.0
2014-Oct-14 09:32N 49°28' E 000°14'0 0.0
2014-Oct-14 08:32N 49°28' E 000°14'  
Track history (hours):
 
Tides and Currents Weather Stations Pressure Air Temp Water Temp Dewpoint Dewpoint Depression Visibility Wind Speed Wind Dir Waves Ship Positions

Capewater

Last reported at 2014-Oct-24 08:25 UTC. Time now 2014-Oct-24 08:41 UTC.
Position N 51°53' E 004°18'.

Length 100 m; draft 5.2 m.

Type: Tanker. MMSI: 246346000.

Date/timePositionNaut miles runAvg speedWind from/ knotsBaromVisibWave heightAir tempDewpointWater temp
2014-Oct-24 08:25N 51°53' E 004°18'0 0.0
2014-Oct-24 07:31N 51°53' E 004°18'0 0.0
2014-Oct-24 06:31N 51°53' E 004°18'0 0.0
2014-Oct-24 05:31N 51°53' E 004°18'1 1.0
2014-Oct-24 04:33N 51°52' E 004°16'0 0.1
2014-Oct-24 03:33N 51°52' E 004°16'0 0.0
2014-Oct-24 02:33N 51°52' E 004°16'0 0.0
2014-Oct-24 01:33N 51°52' E 004°16'0 0.0
2014-Oct-24 00:33N 51°52' E 004°16'0 0.0
2014-Oct-23 23:33N 51°52' E 004°16'0 0.0
2014-Oct-23 22:33N 51°52' E 004°16'0 0.0
2014-Oct-23 21:33N 51°52' E 004°16'0 0.0
2014-Oct-23 20:33N 51°52' E 004°16'0 0.0
2014-Oct-23 19:21N 51°52' E 004°16'0 0.0
2014-Oct-23 18:30N 51°52' E 004°16'0 0.0
2014-Oct-23 17:33N 51°52' E 004°16'0 0.0
2014-Oct-23 16:33N 51°52' E 004°16'0 0.0
2014-Oct-23 15:27N 51°52' E 004°16'1 1.6
2014-Oct-23 14:33N 51°53' E 004°18'0 0.4
2014-Oct-23 13:31N 51°53' E 004°18'0 0.0
2014-Oct-23 12:31N 51°53' E 004°18'0 0.0
2014-Oct-23 11:31N 51°53' E 004°18'0 0.0
2014-Oct-23 10:31N 51°53' E 004°18'0 0.0
2014-Oct-23 09:25N 51°53' E 004°18'0 0.0
2014-Oct-23 08:19N 51°53' E 004°18'0 0.0
2014-Oct-23 07:31N 51°53' E 004°18'0 0.0
2014-Oct-23 06:34N 51°53' E 004°18'0 0.0
2014-Oct-23 05:31N 51°53' E 004°18'0 0.0
2014-Oct-23 04:31N 51°53' E 004°18'0 0.0
2014-Oct-23 03:34N 51°53' E 004°18'0 0.0
2014-Oct-23 02:28N 51°53' E 004°18'0 0.0
2014-Oct-23 01:34N 51°53' E 004°18'0 0.0
2014-Oct-23 00:34N 51°53' E 004°18'0 0.4
2014-Oct-22 23:34N 51°53' E 004°18'8 8.1
2014-Oct-22 22:33N 51°58' E 004°08'1212.0
2014-Oct-22 21:33N 52°00' E 003°49'9 8.7
2014-Oct-22 20:33N 52°08' E 003°41'5 2.4
2014-Oct-22 18:23N 52°12' E 003°36'0 0.1
2014-Oct-22 17:23N 52°12' E 003°36'0 0.0
2014-Oct-22 16:29N 52°12' E 003°36'0 0.3
2014-Oct-22 15:29N 52°11' E 003°36'1 0.6
2014-Oct-22 14:33N 52°11' E 003°36'1 0.8
2014-Oct-22 13:31N 52°10' E 003°36'1 0.8
2014-Oct-22 12:33N 52°09' E 003°36'0 0.4
2014-Oct-22 11:33N 52°09' E 003°36'0 0.1
2014-Oct-22 10:29N 52°09' E 003°36'1 1.6
2014-Oct-22 09:32N 52°09' E 003°33'1 0.6
2014-Oct-22 08:30N 52°09' E 003°34'1 1.3
2014-Oct-22 07:33N 52°10' E 003°33'0 0.5
2014-Oct-22 06:32N 52°09' E 003°34'1 0.8
2014-Oct-22 05:28N 52°10' E 003°35'1 0.9
2014-Oct-22 04:27N 52°10' E 003°36'1 0.7
2014-Oct-22 03:32N 52°11' E 003°37'1 0.6
2014-Oct-22 02:30N 52°11' E 003°38'0 0.3
2014-Oct-22 01:33N 52°10' E 003°38'0 0.4
2014-Oct-22 00:30N 52°10' E 003°39'1 0.8
2014-Oct-21 23:30N 52°10' E 003°37'1 1.2
2014-Oct-21 22:31N 52°09' E 003°36'1 0.9
2014-Oct-21 21:33N 52°08' E 003°35'0 0.3
2014-Oct-21 20:31N 52°09' E 003°35'0 0.2
2014-Oct-21 19:33N 52°08' E 003°35'0 0.3
2014-Oct-21 18:33N 52°08' E 003°36'1 0.8
2014-Oct-21 17:33N 52°09' E 003°37'0 0.4
2014-Oct-21 16:17N 52°09' E 003°38'0 0.1
2014-Oct-21 15:32N 52°09' E 003°37'0 0.1
2014-Oct-21 14:32N 52°09' E 003°37'4 3.9
2014-Oct-21 13:33N 52°09' E 003°31'6513.0
2014-Oct-21 08:33N 52°45' E 002°03'1414.1
2014-Oct-21 07:33N 52°52' E 001°42'1414.0
2014-Oct-21 06:34N 53°02' E 001°27'1313.3
2014-Oct-21 05:33N 53°14' E 001°15'3812.8
2014-Oct-21 02:33N 53°47' E 000°43'1413.6
2014-Oct-21 01:33N 53°58' E 000°30'1413.7
2014-Oct-21 00:33N 54°10' E 000°19'1413.6
2014-Oct-20 23:33N 54°22' E 000°08'1413.5
2014-Oct-20 22:33N 54°33' W 000°07'1312.6
2014-Oct-20 21:33N 54°40' W 000°24'1414.2
2014-Oct-20 20:33N 54°40' W 000°49'13 3.0
2014-Oct-20 16:07N 54°36' W 001°11'0 0.0
2014-Oct-20 10:25N 54°36' W 001°11'0 0.0
2014-Oct-20 08:31N 54°36' W 001°11'2 0.3
2014-Oct-20 01:29N 54°38' W 001°09'4 4.5
2014-Oct-20 00:33N 54°39' W 001°03'1812.5
2014-Oct-19 23:09N 54°35' W 000°33'712.7
2014-Oct-19 22:33N 54°32' W 000°21'1312.9
2014-Oct-19 21:34N 54°29' W 000°00'1312.9
2014-Oct-19 20:33N 54°25' E 000°21'1312.6
2014-Oct-19 19:33N 54°22' E 000°42'14311.0
2014-Oct-19 06:33N 54°03' E 004°45'1211.8
2014-Oct-19 05:33N 54°05' E 005°05'1211.7
2014-Oct-19 04:33N 54°07' E 005°24'1211.8
2014-Oct-19 03:33N 54°09' E 005°44'1511.8
2014-Oct-19 02:15N 54°11' E 006°10'3412.8
2014-Oct-18 23:33N 54°13' E 007°09'1313.3
2014-Oct-18 22:33N 54°12' E 007°32'1413.8
2014-Oct-18 21:33N 54°06' E 007°52'1313.3
2014-Oct-18 20:33N 54°00' E 008°13'1212.5
2014-Oct-18 19:33N 53°58' E 008°34'1111.1
2014-Oct-18 18:33N 53°50' E 008°48'1111.4
2014-Oct-18 17:33N 53°53' E 009°07'3 2.6
2014-Oct-18 16:33N 53°55' E 009°10'0 0.0
2014-Oct-18 06:20N 53°55' E 009°10'0 0.0
2014-Oct-17 09:33N 53°54' E 009°10'2 2.0
2014-Oct-17 08:34N 53°53' E 009°08'0 0.2
2014-Oct-17 07:32N 53°53' E 009°09'0 0.0
2014-Oct-17 06:32N 53°53' E 009°09'0 0.0
2014-Oct-17 05:32N 53°53' E 009°09'0 0.0
2014-Oct-17 04:32N 53°53' E 009°09'0 0.0
2014-Oct-17 03:32N 53°53' E 009°09'0 0.0
2014-Oct-17 02:32N 53°53' E 009°09'0 0.1
2014-Oct-17 01:32N 53°53' E 009°09'0 0.0
2014-Oct-17 00:32N 53°53' E 009°09'0 0.0
2014-Oct-16 23:32N 53°53' E 009°09'0 0.0
2014-Oct-16 22:32N 53°53' E 009°09'0 0.0
2014-Oct-16 21:32N 53°53' E 009°09'0 0.0
2014-Oct-16 20:32N 53°53' E 009°09'0 0.1
2014-Oct-16 19:32N 53°53' E 009°09'0 0.0
2014-Oct-16 18:32N 53°53' E 009°09'0 0.0
2014-Oct-16 17:32N 53°53' E 009°09'0 0.0
2014-Oct-16 16:32N 53°53' E 009°09'0 0.0
2014-Oct-16 15:32N 53°53' E 009°09'0 0.0
2014-Oct-16 14:32N 53°53' E 009°09'0 0.1
2014-Oct-16 13:32N 53°53' E 009°09'0 0.0
2014-Oct-16 12:32N 53°53' E 009°09'0 0.0
2014-Oct-16 11:32N 53°53' E 009°09'0 0.0
2014-Oct-16 10:29N 53°53' E 009°09'0 0.0
2014-Oct-16 09:32N 53°53' E 009°09'0 0.0
2014-Oct-16 08:32N 53°53' E 009°09'0 0.0
2014-Oct-16 07:29N 53°53' E 009°09'0 0.1
2014-Oct-16 06:32N 53°53' E 009°09'0 0.0
2014-Oct-16 05:32N 53°53' E 009°09'0 0.0
2014-Oct-16 04:32N 53°53' E 009°09'0 0.0
2014-Oct-16 03:32N 53°53' E 009°09'0 0.0
2014-Oct-16 02:32N 53°53' E 009°09'0 0.0
2014-Oct-16 01:32N 53°53' E 009°09'0 0.1
2014-Oct-16 00:32N 53°53' E 009°09'0 0.0
2014-Oct-15 23:32N 53°53' E 009°09'2 2.5
2014-Oct-15 22:34N 53°52' E 009°04'1111.2
2014-Oct-15 21:34N 53°51' E 008°46'1111.0
2014-Oct-15 20:34N 53°58' E 008°31'1313.0
2014-Oct-15 19:33N 53°59' E 008°09'1413.6
2014-Oct-15 18:33N 53°57' E 007°47'5814.4
2014-Oct-15 14:33N 53°43' E 006°12'1514.7
2014-Oct-15 13:33N 53°38' E 005°48'1514.8
2014-Oct-15 12:34N 53°33' E 005°25'1514.6
2014-Oct-15 11:33N 53°29' E 005°02'1414.2
2014-Oct-15 10:33N 53°21' E 004°41'12214.9
2014-Oct-15 02:23N 51°45' E 002°37'1213.8
2014-Oct-15 01:29N 51°36' E 002°24'1213.4
2014-Oct-15 00:34N 51°26' E 002°13'1312.9
2014-Oct-14 23:33N 51°14' E 002°04'1312.9
2014-Oct-14 22:33N 51°07' E 001°47'1312.8
2014-Oct-14 21:33N 50°58' E 001°32'3413.6
2014-Oct-14 19:05N 50°31' E 001°01'814.3
2014-Oct-14 18:33N 50°26' E 000°52'4814.2
2014-Oct-14 15:12N 49°50' E 000°04'1015.1
2014-Oct-14 14:33N 49°41' W 000°03'1312.8
2014-Oct-14 13:33N 49°29' E 000°05'4 4.0
2014-Oct-14 12:33N 49°29' E 000°11'2 2.3
2014-Oct-14 11:32N 49°28' E 000°14'0 0.0
2014-Oct-14 10:32N 49°28' E 000°14'0 0.0
2014-Oct-14 09:32N 49°28' E 000°14'0 0.0
2014-Oct-14 08:32N 49°28' E 000°14'  

Dump ship's entire track history